Darstellungsparameter: Aktuell verwendete Einstellungen:
Skalierung der Graphiken ... ?
xyx+y,   Skalierungsfaktor:      Skalierung: Modus: x, Faktor: 1
Darstellungszeitraum ... ?
Vom - - bis: - -   Zeitraum: 10.12.2010 - 11.12.2010
Min/Max/Avg-Anzeige ... ?
Zeige MMA aktuell
Zeige MMA Monat
Zeige MMA alles
Zeige --A aktuell
Zeige --A Monat
Zeige --A alles
Keine MMA-Anzeige
MMA:
Minimum Maximum Average (ber die Originaldaten)
MMA-Basis: 14.04.2020 - 16.05.2020
Quicknavigation für Darstellung... ?
Tage:      1T, 2T, 3T, 5T -1T -2T -3T -5T +1T +2T +3T +5T
Wochen: 1W, 2W, 3W -1W -2W -3W +1W +2W +3W
Monate: 1M, 3M, 6M -1M -3M -6M +1M +3M +6M
Jahre:    1J, 3J, 5J, 10J -1J -3J -5J -10J +1J +3J +5J +10J
Nutze für die Darstellung ... ?
Originaldaten oder Mittelwerte auf ...
Stundenbasis Tagesbasis Wochenbasis
Monatsbasis Jahresbasis      Datenbasis: Original-Daten
Darstellen als:
Statistik (Auto) Statistik J:M      Darstellung:
Zur Graphik,    zurück zur Übersicht aller Sensoren.
 
Tabellarische Datenbersicht: ?
 
Sensor: Nr:Datum:Temp:Abs-Feuchte:Windchill:Wind:
Aussen-T/F 1 10-12-2010 00:03:04 1.6 C 4.49 g/m*3 1.6 C 0 km/h
2 10-12-2010 00:15:04 1.6 C 4.43 g/m*3 1.6 C 0 km/h
3 10-12-2010 00:27:04 2 C 4.45 g/m*3 2 C 0 km/h
4 10-12-2010 00:39:04 2.1 C 4.36 g/m*3 2.1 C 0 km/h
5 10-12-2010 00:51:04 2.2 C 4.34 g/m*3 2.2 C 0 km/h
6 10-12-2010 01:03:04 2.1 C 4.36 g/m*3 2.1 C 0 km/h
7 10-12-2010 01:15:04 1.9 C 4.36 g/m*3 1.9 C 0 km/h
8 10-12-2010 01:27:04 2 C 4.39 g/m*3 2 C 0 km/h
9 10-12-2010 01:39:04 2.1 C 4.36 g/m*3 2.1 C 0 km/h
10 10-12-2010 01:51:04 2.1 C 4.31 g/m*3 2.1 C 0 km/h
11 10-12-2010 02:03:04 2.3 C 4.2 g/m*3 2.3 C 0 km/h
12 10-12-2010 02:15:04 1.8 C 4.17 g/m*3 1.8 C 0 km/h
13 10-12-2010 02:27:04 1.4 C 4.16 g/m*3 1.4 C 0 km/h
14 10-12-2010 02:39:04 1.6 C 4.38 g/m*3 1.6 C 0 km/h
15 10-12-2010 02:51:04 1.4 C 4.37 g/m*3 1.4 C 0 km/h
16 10-12-2010 03:03:05 1 C 4.31 g/m*3 1 C 0 km/h
17 10-12-2010 03:15:05 1.3 C 4.5 g/m*3 1.3 C 0 km/h
18 10-12-2010 03:27:05 1.2 C 4.53 g/m*3 1.2 C 0 km/h
19 10-12-2010 03:39:05 1.3 C 4.61 g/m*3 1.3 C 0 km/h
20 10-12-2010 03:51:05 1.4 C 4.64 g/m*3 1.4 C 0 km/h
21 10-12-2010 04:03:05 1.4 C 4.69 g/m*3 1.4 C 0 km/h
22 10-12-2010 04:15:05 1.2 C 4.63 g/m*3 1.2 C 0 km/h
23 10-12-2010 04:27:05 1.4 C 4.69 g/m*3 1.4 C 0 km/h
24 10-12-2010 04:39:05 2 C 4.89 g/m*3 2 C 0 km/h
25 10-12-2010 04:51:05 2.5 C 5.06 g/m*3 2.5 C 0 km/h
Sensor: Nr:Datum:Temp:Abs-Feuchte:Windchill:Wind:
Aussen-T/F 26 10-12-2010 05:03:05 2.8 C 5.04 g/m*3 2.8 C 0 km/h
27 10-12-2010 05:15:05 2.6 C 4.86 g/m*3 2.6 C 0 km/h
28 10-12-2010 05:27:05 2.4 C 4.8 g/m*3 2.4 C 0 km/h
29 10-12-2010 05:39:05 2.4 C 4.85 g/m*3 2.4 C 0 km/h
30 10-12-2010 05:51:05 2.4 C 4.8 g/m*3 2.4 C 0 km/h
31 10-12-2010 06:03:05 2.2 C 4.79 g/m*3 2.2 C 0 km/h
32 10-12-2010 06:15:05 2.1 C 4.76 g/m*3 2.1 C 0 km/h
33 10-12-2010 06:27:05 2 C 4.72 g/m*3 2 C 0 km/h
34 10-12-2010 06:39:05 1.5 C 4.67 g/m*3 1.5 C 0 km/h
35 10-12-2010 06:51:05 1.4 C 4.69 g/m*3 1.4 C 0 km/h
36 10-12-2010 07:03:05 1.2 C 4.63 g/m*3 1.2 C 0 km/h
37 10-12-2010 07:15:02 1.1 C 4.65 g/m*3 1.1 C 0 km/h
38 10-12-2010 07:27:03 1.1 C 4.65 g/m*3 1.1 C 0 km/h
39 10-12-2010 07:39:02 0.5 C 4.46 g/m*3 0.5 C 0 km/h
40 10-12-2010 07:51:03 -0.1 C 4.28 g/m*3 -0.1 C 0 km/h
41 10-12-2010 08:03:02 -0.2 C 4.3 g/m*3 -0.2 C 0 km/h
42 10-12-2010 08:15:02 -0.4 C 4.24 g/m*3 -0.4 C 0 km/h
43 10-12-2010 08:27:02 -0.3 C 4.27 g/m*3 -0.3 C 0 km/h
44 10-12-2010 08:39:02 -0.3 C 4.32 g/m*3 -0.3 C 0 km/h
45 10-12-2010 08:51:02 -0.4 C 4.29 g/m*3 -0.4 C 0 km/h
46 10-12-2010 09:03:02 -0.6 C 4.23 g/m*3 -0.6 C 0 km/h
47 10-12-2010 09:15:02 -0.7 C 4.2 g/m*3 -0.7 C 0 km/h
48 10-12-2010 09:27:02 -0.6 C 4.23 g/m*3 -0.6 C 0 km/h
49 10-12-2010 09:39:02 0 C 4.41 g/m*3 0 C 0 km/h
50 10-12-2010 09:51:02 -0.1 C 4.43 g/m*3 -0.1 C 0 km/h
Sensor: Nr:Datum:Temp:Abs-Feuchte:Windchill:Wind:
Aussen-T/F 51 10-12-2010 10:03:01 -0.3 C 4.32 g/m*3 -0.3 C 0 km/h
52 10-12-2010 10:15:01 0 C 4.41 g/m*3 0 C 0 km/h
53 10-12-2010 10:27:02 0 C 4.41 g/m*3 0 C 0 km/h
54 10-12-2010 10:39:01 0.2 C 4.52 g/m*3 0.2 C 0 km/h
55 10-12-2010 10:51:03 0.4 C 4.58 g/m*3 0.4 C 0 km/h
56 10-12-2010 11:03:02 0.2 C 4.47 g/m*3 0.2 C 0 km/h
57 10-12-2010 11:15:02 1.1 C 4.76 g/m*3 1.1 C 0 km/h
58 10-12-2010 11:27:02 1.6 C 4.92 g/m*3 1.6 C 0 km/h
59 10-12-2010 11:39:02 2 C 5 g/m*3 2 C 0 km/h
60 10-12-2010 11:51:02 2 C 4.95 g/m*3 2 C 0 km/h
61 10-12-2010 12:03:01 2.3 C 5.05 g/m*3 2.3 C 0 km/h
62 10-12-2010 12:15:02 2.2 C 4.96 g/m*3 2.2 C 0 km/h
63 10-12-2010 12:27:02 2.4 C 5.02 g/m*3 2.4 C 0 km/h
64 10-12-2010 12:39:02 2.3 C 4.93 g/m*3 2.3 C 0 km/h
65 10-12-2010 12:51:02 2 C 4.78 g/m*3 2 C 0 km/h
66 10-12-2010 13:03:03 2.6 C 4.98 g/m*3 2.6 C 0 km/h
67 10-12-2010 13:15:02 2.7 C 4.95 g/m*3 2.7 C 0 km/h
68 10-12-2010 13:27:02 3 C 4.88 g/m*3 3 C 0 km/h
69 10-12-2010 13:39:02 3.4 C 4.95 g/m*3 3.4 C 0 km/h
70 10-12-2010 13:51:01 3.1 C 4.73 g/m*3 3.1 C 0 km/h
71 10-12-2010 14:03:02 3.1 C 4.67 g/m*3 3.1 C 0 km/h
72 10-12-2010 14:15:01 3.1 C 4.67 g/m*3 3.1 C 0 km/h
73 10-12-2010 14:27:01 2.9 C 4.67 g/m*3 2.9 C 0 km/h
74 10-12-2010 14:39:01 2.7 C 4.66 g/m*3 2.7 C 0 km/h
75 10-12-2010 14:51:01 2.3 C 4.59 g/m*3 2.3 C 0 km/h
Sensor: Nr:Datum:Temp:Abs-Feuchte:Windchill:Wind:
Aussen-T/F 76 10-12-2010 15:03:01 2.2 C 4.62 g/m*3 2.2 C 0 km/h
77 10-12-2010 15:15:02 1.8 C 4.6 g/m*3 1.8 C 0 km/h
78 10-12-2010 15:27:02 1.8 C 4.66 g/m*3 1.8 C 0 km/h
79 10-12-2010 15:39:01 1.6 C 4.65 g/m*3 1.6 C 0 km/h
80 10-12-2010 15:51:02 1.5 C 4.67 g/m*3 1.5 C 0 km/h
81 10-12-2010 16:03:01 1.5 C 4.73 g/m*3 1.5 C 0 km/h
82 10-12-2010 16:15:01 1.5 C 4.78 g/m*3 1.5 C 0 km/h
83 10-12-2010 16:27:02 1.4 C 4.75 g/m*3 1.4 C 0 km/h
84 10-12-2010 16:39:01 1.6 C 4.87 g/m*3 1.6 C 0 km/h
85 10-12-2010 16:51:02 1.7 C 4.9 g/m*3 1.7 C 0 km/h
86 10-12-2010 17:03:01 1.9 C 4.97 g/m*3 1.9 C 0 km/h
87 10-12-2010 17:15:02 1.6 C 4.87 g/m*3 1.6 C 0 km/h
88 10-12-2010 17:27:02 1.6 C 4.87 g/m*3 1.6 C 0 km/h
89 10-12-2010 17:39:02 2.3 C 5.1 g/m*3 2.3 C 0 km/h
90 10-12-2010 17:51:01 1.8 C 4.93 g/m*3 1.8 C 0 km/h
91 10-12-2010 18:03:02 1.7 C 4.9 g/m*3 1.7 C 0 km/h
92 10-12-2010 18:15:01 2 C 5 g/m*3 2 C 0 km/h
93 10-12-2010 18:27:01 2.2 C 5.01 g/m*3 2.2 C 0 km/h
94 10-12-2010 18:39:02 1.8 C 4.88 g/m*3 1.8 C 0 km/h
95 10-12-2010 18:51:02 1.6 C 4.87 g/m*3 1.6 C 0 km/h
96 10-12-2010 19:03:02 2 C 4.95 g/m*3 2 C 0 km/h
97 10-12-2010 19:15:01 2.2 C 5.01 g/m*3 2.2 C 0 km/h
98 10-12-2010 19:27:01 2.5 C 5.06 g/m*3 2.5 C 0 km/h
99 10-12-2010 19:39:02 2.3 C 4.93 g/m*3 2.3 C 0 km/h
100 10-12-2010 19:51:02 2.4 C 4.91 g/m*3 2.4 C 0 km/h
Sensor: Nr:Datum:Temp:Abs-Feuchte:Windchill:Wind:
Aussen-T/F 101 10-12-2010 20:03:02 2.4 C 4.91 g/m*3 2.4 C 0 km/h
102 10-12-2010 20:15:01 2.7 C 5.01 g/m*3 2.7 C 0 km/h
103 10-12-2010 20:27:01 2.8 C 4.99 g/m*3 2.8 C 0 km/h
104 10-12-2010 20:39:02 2.5 C 4.83 g/m*3 2.5 C 0 km/h
105 10-12-2010 20:51:01 2.6 C 4.92 g/m*3 2.6 C 0 km/h
106 10-12-2010 21:03:02 2.5 C 4.89 g/m*3 2.5 C 0 km/h
107 10-12-2010 21:15:02 2.5 C 4.83 g/m*3 2.5 C 0 km/h
108 10-12-2010 21:27:02 2.4 C 4.8 g/m*3 2.4 C 0 km/h
109 10-12-2010 21:39:02 2.6 C 4.86 g/m*3 2.6 C 0 km/h
110 10-12-2010 21:51:02 2.5 C 4.89 g/m*3 2.5 C 0 km/h
111 10-12-2010 22:03:02 2.5 C 4.89 g/m*3 2.5 C 0 km/h
112 10-12-2010 22:15:01 2.6 C 4.86 g/m*3 2.6 C 0 km/h
113 10-12-2010 22:27:01 2.4 C 4.85 g/m*3 2.4 C 0 km/h
114 10-12-2010 22:39:02 2.5 C 4.89 g/m*3 2.5 C 0 km/h
115 10-12-2010 22:51:01 2.6 C 4.86 g/m*3 2.6 C 0 km/h
116 10-12-2010 23:03:02 2.4 C 4.8 g/m*3 2.4 C 0 km/h
117 10-12-2010 23:15:02 2.3 C 4.82 g/m*3 2.3 C 0 km/h
118 10-12-2010 23:27:02 2.1 C 4.87 g/m*3 2.1 C 0 km/h
119 10-12-2010 23:39:02 2.2 C 4.9 g/m*3 2.2 C 0 km/h
120 10-12-2010 23:51:01 2.2 C 4.9 g/m*3 2.2 C 0 km/h
121 11-12-2010 00:03:02 2.2 C 4.96 g/m*3 2.2 C 0 km/h
122 11-12-2010 00:15:02 2.3 C 4.99 g/m*3 2.3 C 0 km/h
123 11-12-2010 00:27:02 2.1 C 4.92 g/m*3 2.1 C 0 km/h
124 11-12-2010 00:39:01 2.2 C 5.01 g/m*3 2.2 C 0 km/h
125 11-12-2010 00:51:02 2.1 C 4.98 g/m*3 2.1 C 0 km/h
Sensor: Nr:Datum:Temp:Abs-Feuchte:Windchill:Wind:
Aussen-T/F 126 11-12-2010 01:03:01 2.3 C 5.05 g/m*3 2.3 C 0 km/h
127 11-12-2010 01:15:02 2.4 C 5.08 g/m*3 2.4 C 0 km/h
128 11-12-2010 01:27:03 2.5 C 5.12 g/m*3 2.5 C 0 km/h
129 11-12-2010 01:39:01 2.5 C 5.06 g/m*3 2.5 C 0 km/h
130 11-12-2010 01:51:02 2.6 C 5.09 g/m*3 2.6 C 0 km/h
131 11-12-2010 02:03:02 2.7 C 5.13 g/m*3 2.7 C 0 km/h
132 11-12-2010 02:15:02 2.8 C 5.16 g/m*3 2.8 C 0 km/h
133 11-12-2010 02:27:02 2.8 C 5.16 g/m*3 2.8 C 0 km/h
134 11-12-2010 02:39:03 2.6 C 5.09 g/m*3 2.6 C 0 km/h
135 11-12-2010 02:51:01 2.7 C 5.13 g/m*3 2.7 C 0 km/h
136 11-12-2010 03:03:01 2.6 C 5.09 g/m*3 2.6 C 0 km/h
137 11-12-2010 03:15:02 2.7 C 5.13 g/m*3 2.7 C 0 km/h
138 11-12-2010 03:27:02 2.3 C 4.99 g/m*3 2.3 C 0 km/h
139 11-12-2010 03:39:02 2.3 C 5.05 g/m*3 2.3 C 0 km/h
140 11-12-2010 03:51:02 2.8 C 5.22 g/m*3 2.8 C 0 km/h
141 11-12-2010 04:03:01 3.3 C 5.34 g/m*3 3.3 C 0 km/h
142 11-12-2010 04:15:01 3 C 5.17 g/m*3 3 C 0 km/h
143 11-12-2010 04:27:01 3 C 5.17 g/m*3 3 C 0 km/h
144 11-12-2010 04:39:02 3.5 C 5.29 g/m*3 3.5 C 0 km/h
145 11-12-2010 04:51:01 3.5 C 5.23 g/m*3 3.5 C 0 km/h
146 11-12-2010 05:03:02 4 C 5.28 g/m*3 4 C 0 km/h
147 11-12-2010 05:15:01 4 C 5.21 g/m*3 4 C 0 km/h
148 11-12-2010 05:27:01 3.8 C 5.14 g/m*3 3.8 C 0 km/h
149 11-12-2010 05:39:02 3.8 C 5.14 g/m*3 3.8 C 0 km/h
150 11-12-2010 05:51:01 3.7 C 5.17 g/m*3 3.7 C 0 km/h
Sensor: Nr:Datum:Temp:Abs-Feuchte:Windchill:Wind:
Aussen-T/F 151 11-12-2010 06:03:02 3.6 C 5.2 g/m*3 3.6 C 0 km/h
152 11-12-2010 06:15:01 3.1 C 5.03 g/m*3 3.1 C 0 km/h
153 11-12-2010 06:27:01 3.4 C 5.19 g/m*3 3.4 C 0 km/h
154 11-12-2010 06:39:01 3.4 C 5.19 g/m*3 3.4 C 0 km/h
155 11-12-2010 06:51:01 3.3 C 5.16 g/m*3 3.3 C 0 km/h
156 11-12-2010 07:03:01 3.6 C 5.32 g/m*3 3.6 C 0 km/h
157 11-12-2010 07:15:01 3.9 C 5.31 g/m*3 3.9 C 0 km/h
158 11-12-2010 07:27:01 4.5 C 5.26 g/m*3 4.5 C 0 km/h
159 11-12-2010 07:39:01 4.5 C 5.13 g/m*3 4.5 C 0 km/h
160 11-12-2010 07:51:01 4.2 C 5.03 g/m*3 4.2 C 0 km/h
161 11-12-2010 08:03:01 4.6 C 5.16 g/m*3 4.6 C 0 km/h
162 11-12-2010 08:15:02 4.7 C 5.06 g/m*3 4.7 C 0 km/h
163 11-12-2010 08:27:02 5 C 4.96 g/m*3 5 C 0 km/h
164 11-12-2010 08:39:01 5.1 C 4.92 g/m*3 5.1 C 0 km/h
165 11-12-2010 08:51:02 4.9 C 4.93 g/m*3 4.9 C 0 km/h
166 11-12-2010 09:03:01 4.5 C 4.86 g/m*3 4.5 C 0 km/h
167 11-12-2010 09:15:02 4.3 C 4.99 g/m*3 4.3 C 0 km/h
168 11-12-2010 09:27:02 4 C 4.9 g/m*3 4 C 0 km/h
169 11-12-2010 09:39:01 4 C 5.15 g/m*3 4 C 0 km/h
170 11-12-2010 09:51:02 4 C 5.28 g/m*3 4 C 0 km/h
171 11-12-2010 10:03:01 3.9 C 5.37 g/m*3 3.9 C 0 km/h
172 11-12-2010 10:15:01 4 C 5.4 g/m*3 4 C 0 km/h
173 11-12-2010 10:27:01 4 C 5.4 g/m*3 4 C 0 km/h
174 11-12-2010 10:39:02 3.8 C 5.33 g/m*3 3.8 C 0 km/h
175 11-12-2010 10:51:01 3.8 C 5.4 g/m*3 3.8 C 0 km/h
Sensor: Nr:Datum:Temp:Abs-Feuchte:Windchill:Wind:
Aussen-T/F 176 11-12-2010 11:03:02 4.1 C 5.38 g/m*3 4.1 C 0 km/h
177 11-12-2010 11:15:01 4.2 C 5.35 g/m*3 4.2 C 0 km/h
178 11-12-2010 11:27:01 4.5 C 5.39 g/m*3 4.5 C 0 km/h
179 11-12-2010 11:39:02 4.4 C 5.35 g/m*3 4.4 C 0 km/h
180 11-12-2010 11:51:01 4.3 C 5.38 g/m*3 4.3 C 0 km/h
181 11-12-2010 12:03:02 4.3 C 5.45 g/m*3 4.3 C 0 km/h
182 11-12-2010 12:15:01 4.4 C 5.55 g/m*3 4.4 C 0 km/h
183 11-12-2010 12:27:01 4.6 C 5.62 g/m*3 4.6 C 0 km/h
184 11-12-2010 12:39:01 4.6 C 5.62 g/m*3 4.6 C 0 km/h
185 11-12-2010 12:51:01 4.8 C 5.57 g/m*3 4.8 C 0 km/h
186 11-12-2010 13:03:01 4.8 C 5.5 g/m*3 4.8 C 0 km/h
187 11-12-2010 13:15:01 4.8 C 5.43 g/m*3 4.8 C 0 km/h
188 11-12-2010 13:27:01 4.8 C 5.36 g/m*3 4.8 C 0 km/h
189 11-12-2010 13:39:01 4.9 C 5.33 g/m*3 4.9 C 0 km/h
190 11-12-2010 13:51:01 5 C 5.3 g/m*3 5 C 0 km/h
191 11-12-2010 14:03:01 4.8 C 5.3 g/m*3 4.8 C 0 km/h
192 11-12-2010 14:15:02 4.9 C 5.33 g/m*3 4.9 C 0 km/h
193 11-12-2010 14:27:02 4.8 C 5.3 g/m*3 4.8 C 0 km/h
194 11-12-2010 14:39:01 4.9 C 5.33 g/m*3 4.9 C 0 km/h
195 11-12-2010 14:51:02 5.1 C 5.27 g/m*3 5.1 C 0 km/h
196 11-12-2010 15:03:01 5.1 C 5.27 g/m*3 5.1 C 0 km/h
197 11-12-2010 15:15:02 5.1 C 5.2 g/m*3 5.1 C 0 km/h
198 11-12-2010 15:27:02 5.2 C 5.16 g/m*3 5.2 C 0 km/h
199 11-12-2010 15:39:01 5.1 C 5.13 g/m*3 5.1 C 0 km/h
200 11-12-2010 15:51:02 4.8 C 5.16 g/m*3 4.8 C 0 km/h
Sensor: Nr:Datum:Temp:Abs-Feuchte:Windchill:Wind:
Aussen-T/F 201 11-12-2010 16:03:01 4.7 C 5.2 g/m*3 4.7 C 0 km/h
202 11-12-2010 16:15:01 4.6 C 5.23 g/m*3 4.6 C 0 km/h
203 11-12-2010 16:27:01 5.1 C 5.27 g/m*3 5.1 C 0 km/h
204 11-12-2010 16:39:02 5.1 C 5.27 g/m*3 5.1 C 0 km/h
205 11-12-2010 16:51:01 5 C 5.23 g/m*3 5 C 0 km/h
206 11-12-2010 17:03:02 5 C 5.16 g/m*3 5 C 0 km/h
207 11-12-2010 17:15:01 5.4 C 5.23 g/m*3 5.4 C 0 km/h
208 11-12-2010 17:27:01 5.5 C 5.2 g/m*3 5.5 C 0 km/h
209 11-12-2010 17:39:02 5.1 C 5.2 g/m*3 5.1 C 0 km/h
210 11-12-2010 17:51:01 4.8 C 5.3 g/m*3 4.8 C 0 km/h
211 11-12-2010 18:03:02 4.7 C 5.26 g/m*3 4.7 C 0 km/h
212 11-12-2010 18:15:01 4.4 C 5.16 g/m*3 4.4 C 0 km/h
213 11-12-2010 18:27:01 4.2 C 5.15 g/m*3 4.2 C 0 km/h
214 11-12-2010 18:39:01 3.9 C 5.24 g/m*3 3.9 C 0 km/h
215 11-12-2010 18:51:01 3.9 C 5.24 g/m*3 3.9 C 0 km/h
216 11-12-2010 19:03:01 4.1 C 5.25 g/m*3 4.1 C 0 km/h
217 11-12-2010 19:15:02 4.2 C 5.22 g/m*3 4.2 C 0 km/h
218 11-12-2010 19:27:02 4 C 5.15 g/m*3 4 C 0 km/h
219 11-12-2010 19:39:01 4.4 C 5.22 g/m*3 4.4 C 0 km/h
220 11-12-2010 19:51:01 4.6 C 5.16 g/m*3 4.6 C 0 km/h
221 11-12-2010 20:03:01 4.5 C 5.06 g/m*3 4.5 C 0 km/h
222 11-12-2010 20:15:02 4.4 C 5.03 g/m*3 4.4 C 0 km/h
223 11-12-2010 20:27:02 5.4 C 5.02 g/m*3 5.4 C 0 km/h
224 11-12-2010 20:39:01 5 C 4.89 g/m*3 5 C 0 km/h
225 11-12-2010 20:51:02 4.8 C 5.03 g/m*3 4.8 C 0 km/h
Sensor: Nr:Datum:Temp:Abs-Feuchte:Windchill:Wind:
Aussen-T/F 226 11-12-2010 21:03:01 4.9 C 5.06 g/m*3 4.9 C 0 km/h
227 11-12-2010 21:15:01 4.8 C 5.03 g/m*3 4.8 C 0 km/h
228 11-12-2010 21:27:02 4.1 C 4.99 g/m*3 4.1 C 0 km/h
229 11-12-2010 21:39:01 4 C 5.02 g/m*3 4 C 0 km/h
230 11-12-2010 21:51:02 4.2 C 5.09 g/m*3 4.2 C 0 km/h
231 11-12-2010 22:03:01 4.5 C 5.13 g/m*3 4.5 C 0 km/h
232 11-12-2010 22:15:01 4.2 C 5.03 g/m*3 4.2 C 0 km/h
233 11-12-2010 22:27:01 4.5 C 5.13 g/m*3 4.5 C 0 km/h
234 11-12-2010 22:40:19 4.4 C 4.96 g/m*3 4.4 C 0 km/h
235 11-12-2010 22:52:19 3.9 C 4.93 g/m*3 3.9 C 0 km/h
236 11-12-2010 23:04:19 4.6 C 5.03 g/m*3 4.6 C 0 km/h
237 11-12-2010 23:16:20 4.8 C 4.9 g/m*3 4.8 C 0 km/h
238 11-12-2010 23:28:20 4.8 C 4.9 g/m*3 4.8 C 0 km/h
239 11-12-2010 23:40:20 4.5 C 4.8 g/m*3 4.5 C 0 km/h
240 11-12-2010 23:52:20 4.6 C 4.83 g/m*3 4.6 C 0 km/h

Legende:
   Min
   Max


Maximal/Minimal-Werte vom 14.04.2020 - 16.05.2020

Sensor Min Max Avg
Temp
(Aussen-T/F)
-0.1 °C
15-04-2020  06:55:00
26.2 °C
17-04-2020  18:05:00
11.98 °C

Die Daten stammen von einer Davis Vantage Pro 2 Wetter-Station und werden unter Linux mit der Software wview2wettercgi und aufbereitet. Alle Angaben erfolgen ohne Gewähr für ihre Vollständigkeit oder Richtigkeit.
Kontakt: Rainer Krienke krienke@uni-koblenz.de . Meine Webseiten an der Uni Koblenz oder privat.
Version: $Revision: 0.78 $